sensor_id;sensor_type;location;lat;lon;timestamp;temperature;humidity
29321;DHT22;16323;51.130;6.612;2023-05-19T00:00:18;19.40;60.60
29321;DHT22;16323;51.130;6.612;2023-05-19T00:02:45;19.50;60.60
29321;DHT22;16323;51.130;6.612;2023-05-19T00:05:12;19.40;60.30
29321;DHT22;16323;51.130;6.612;2023-05-19T00:07:43;19.40;60.00
29321;DHT22;16323;51.130;6.612;2023-05-19T00:10:12;19.40;60.10
29321;DHT22;16323;51.130;6.612;2023-05-19T00:12:40;19.40;59.60
29321;DHT22;16323;51.130;6.612;2023-05-19T00:15:09;19.40;59.70
29321;DHT22;16323;51.130;6.612;2023-05-19T00:17:36;19.40;59.40
29321;DHT22;16323;51.130;6.612;2023-05-19T00:20:04;19.40;59.60
29321;DHT22;16323;51.130;6.612;2023-05-19T00:22:31;19.40;59.40
29321;DHT22;16323;51.130;6.612;2023-05-19T00:24:58;19.40;59.50
29321;DHT22;16323;51.130;6.612;2023-05-19T00:27:25;19.40;59.50
29321;DHT22;16323;51.130;6.612;2023-05-19T00:29:53;19.40;60.80
29321;DHT22;16323;51.130;6.612;2023-05-19T00:32:19;19.40;60.00
29321;DHT22;16323;51.130;6.612;2023-05-19T00:34:46;19.40;60.20
29321;DHT22;16323;51.130;6.612;2023-05-19T00:37:13;19.40;60.20
29321;DHT22;16323;51.130;6.612;2023-05-19T00:39:40;19.40;60.20
29321;DHT22;16323;51.130;6.612;2023-05-19T00:42:07;19.40;60.10
29321;DHT22;16323;51.130;6.612;2023-05-19T00:44:36;19.40;60.30
29321;DHT22;16323;51.130;6.612;2023-05-19T00:47:07;19.40;60.20
29321;DHT22;16323;51.130;6.612;2023-05-19T00:49:34;19.40;60.20
29321;DHT22;16323;51.130;6.612;2023-05-19T00:52:01;19.40;60.30
29321;DHT22;16323;51.130;6.612;2023-05-19T00:54:28;19.40;60.00
29321;DHT22;16323;51.130;6.612;2023-05-19T00:56:55;19.40;59.90
29321;DHT22;16323;51.130;6.612;2023-05-19T00:59:22;19.40;59.40
29321;DHT22;16323;51.130;6.612;2023-05-19T01:01:49;19.40;59.20
29321;DHT22;16323;51.130;6.612;2023-05-19T01:04:18;19.40;59.00
29321;DHT22;16323;51.130;6.612;2023-05-19T01:06:46;19.40;59.00
29321;DHT22;16323;51.130;6.612;2023-05-19T01:09:14;19.40;58.70
29321;DHT22;16323;51.130;6.612;2023-05-19T01:11:41;19.40;58.70
29321;DHT22;16323;51.130;6.612;2023-05-19T01:14:08;19.40;58.60
29321;DHT22;16323;51.130;6.612;2023-05-19T01:16:39;19.40;58.60
29321;DHT22;16323;51.130;6.612;2023-05-19T01:19:17;19.40;58.60
29321;DHT22;16323;51.130;6.612;2023-05-19T01:22:10;19.40;58.50
29321;DHT22;16323;51.130;6.612;2023-05-19T01:25:10;19.40;58.40
29321;DHT22;16323;51.130;6.612;2023-05-19T01:28:07;19.40;58.80
29321;DHT22;16323;51.130;6.612;2023-05-19T01:30:43;19.40;59.10
29321;DHT22;16323;51.130;6.612;2023-05-19T01:33:12;19.40;58.90
29321;DHT22;16323;51.130;6.612;2023-05-19T01:35:40;19.40;59.30
29321;DHT22;16323;51.130;6.612;2023-05-19T01:38:09;19.40;59.40
29321;DHT22;16323;51.130;6.612;2023-05-19T01:40:37;19.40;59.30
29321;DHT22;16323;51.130;6.612;2023-05-19T01:43:06;19.40;59.50
29321;DHT22;16323;51.130;6.612;2023-05-19T01:45:34;19.40;59.40
29321;DHT22;16323;51.130;6.612;2023-05-19T01:48:04;19.40;59.40
29321;DHT22;16323;51.130;6.612;2023-05-19T01:50:31;19.40;59.60
29321;DHT22;16323;51.130;6.612;2023-05-19T01:52:59;19.40;59.20
29321;DHT22;16323;51.130;6.612;2023-05-19T01:55:26;19.40;58.90
29321;DHT22;16323;51.130;6.612;2023-05-19T01:58:00;19.40;58.80
29321;DHT22;16323;51.130;6.612;2023-05-19T02:00:35;19.40;58.30
29321;DHT22;16323;51.130;6.612;2023-05-19T02:03:16;19.40;58.30
29321;DHT22;16323;51.130;6.612;2023-05-19T02:05:51;19.40;58.00
29321;DHT22;16323;51.130;6.612;2023-05-19T02:08:24;19.40;58.00
29321;DHT22;16323;51.130;6.612;2023-05-19T02:10:57;19.30;57.70
29321;DHT22;16323;51.130;6.612;2023-05-19T02:13:30;19.30;57.70
29321;DHT22;16323;51.130;6.612;2023-05-19T02:16:03;19.30;57.70
29321;DHT22;16323;51.130;6.612;2023-05-19T02:18:32;19.30;58.70
29321;DHT22;16323;51.130;6.612;2023-05-19T02:20:59;19.30;57.60
29321;DHT22;16323;51.130;6.612;2023-05-19T02:23:26;19.30;57.80
29321;DHT22;16323;51.130;6.612;2023-05-19T02:25:53;19.30;58.10
29321;DHT22;16323;51.130;6.612;2023-05-19T02:28:20;19.30;58.10
29321;DHT22;16323;51.130;6.612;2023-05-19T02:30:46;19.30;58.30
29321;DHT22;16323;51.130;6.612;2023-05-19T02:33:13;19.40;58.40
29321;DHT22;16323;51.130;6.612;2023-05-19T02:35:41;19.30;58.40
29321;DHT22;16323;51.130;6.612;2023-05-19T02:38:08;19.30;58.40
29321;DHT22;16323;51.130;6.612;2023-05-19T02:40:35;19.30;58.50
29321;DHT22;16323;51.130;6.612;2023-05-19T02:43:02;19.30;58.50
29321;DHT22;16323;51.130;6.612;2023-05-19T02:45:28;19.30;58.50
29321;DHT22;16323;51.130;6.612;2023-05-19T02:47:55;19.30;58.50
29321;DHT22;16323;51.130;6.612;2023-05-19T02:50:22;19.30;58.50
29321;DHT22;16323;51.130;6.612;2023-05-19T02:52:50;19.30;58.30
29321;DHT22;16323;51.130;6.612;2023-05-19T02:55:18;19.30;58.20
29321;DHT22;16323;51.130;6.612;2023-05-19T02:57:45;19.30;58.10
29321;DHT22;16323;51.130;6.612;2023-05-19T03:00:12;19.30;58.00
29321;DHT22;16323;51.130;6.612;2023-05-19T03:02:39;19.30;58.00
29321;DHT22;16323;51.130;6.612;2023-05-19T03:05:09;19.30;58.00
29321;DHT22;16323;51.130;6.612;2023-05-19T03:07:35;19.30;57.40
29321;DHT22;16323;51.130;6.612;2023-05-19T03:10:05;19.30;57.60
29321;DHT22;16323;51.130;6.612;2023-05-19T03:12:32;19.30;57.40
29321;DHT22;16323;51.130;6.612;2023-05-19T03:14:59;19.30;57.30
29321;DHT22;16323;51.130;6.612;2023-05-19T03:17:26;19.30;57.70
29321;DHT22;16323;51.130;6.612;2023-05-19T03:19:58;19.30;58.10
29321;DHT22;16323;51.130;6.612;2023-05-19T03:22:25;19.30;58.30
29321;DHT22;16323;51.130;6.612;2023-05-19T03:24:51;19.30;57.90
29321;DHT22;16323;51.130;6.612;2023-05-19T03:27:20;19.30;58.20
29321;DHT22;16323;51.130;6.612;2023-05-19T03:29:47;19.30;58.30
29321;DHT22;16323;51.130;6.612;2023-05-19T03:32:13;19.30;58.10
29321;DHT22;16323;51.130;6.612;2023-05-19T03:34:40;19.30;58.10
29321;DHT22;16323;51.130;6.612;2023-05-19T03:37:07;19.30;58.30
29321;DHT22;16323;51.130;6.612;2023-05-19T03:39:35;19.30;58.20
29321;DHT22;16323;51.130;6.612;2023-05-19T03:42:01;19.30;58.30
29321;DHT22;16323;51.130;6.612;2023-05-19T03:44:29;19.30;58.00
29321;DHT22;16323;51.130;6.612;2023-05-19T03:46:56;19.30;57.90
29321;DHT22;16323;51.130;6.612;2023-05-19T03:49:23;19.30;57.80
29321;DHT22;16323;51.130;6.612;2023-05-19T03:51:50;19.20;57.40
29321;DHT22;16323;51.130;6.612;2023-05-19T03:54:16;19.20;57.30
29321;DHT22;16323;51.130;6.612;2023-05-19T03:56:43;19.30;57.40
29321;DHT22;16323;51.130;6.612;2023-05-19T03:59:10;19.20;57.10
29321;DHT22;16323;51.130;6.612;2023-05-19T04:01:38;19.20;56.60
29321;DHT22;16323;51.130;6.612;2023-05-19T04:04:05;19.20;56.60
29321;DHT22;16323;51.130;6.612;2023-05-19T04:06:32;19.20;56.80
29321;DHT22;16323;51.130;6.612;2023-05-19T04:09:01;19.20;56.50
29321;DHT22;16323;51.130;6.612;2023-05-19T04:11:29;19.20;56.40
29321;DHT22;16323;51.130;6.612;2023-05-19T04:13:55;19.20;56.40
29321;DHT22;16323;51.130;6.612;2023-05-19T04:16:22;19.20;56.70
29321;DHT22;16323;51.130;6.612;2023-05-19T04:18:50;19.20;57.00
29321;DHT22;16323;51.130;6.612;2023-05-19T04:21:17;19.20;57.20
29321;DHT22;16323;51.130;6.612;2023-05-19T04:23:46;19.30;57.20
29321;DHT22;16323;51.130;6.612;2023-05-19T04:26:13;19.20;57.20
29321;DHT22;16323;51.130;6.612;2023-05-19T04:28:40;19.20;57.10
29321;DHT22;16323;51.130;6.612;2023-05-19T04:31:09;19.20;57.40
29321;DHT22;16323;51.130;6.612;2023-05-19T04:33:37;19.20;56.90
29321;DHT22;16323;51.130;6.612;2023-05-19T04:36:06;19.20;57.20
29321;DHT22;16323;51.130;6.612;2023-05-19T04:38:35;19.20;57.30
29321;DHT22;16323;51.130;6.612;2023-05-19T04:41:04;19.20;57.40
29321;DHT22;16323;51.130;6.612;2023-05-19T04:43:34;19.20;57.30
29321;DHT22;16323;51.130;6.612;2023-05-19T04:46:06;19.20;57.00
29321;DHT22;16323;51.130;6.612;2023-05-19T04:48:34;19.20;56.70
29321;DHT22;16323;51.130;6.612;2023-05-19T04:51:01;19.20;56.70
29321;DHT22;16323;51.130;6.612;2023-05-19T04:53:29;19.20;56.60
29321;DHT22;16323;51.130;6.612;2023-05-19T04:55:57;19.20;56.50
29321;DHT22;16323;51.130;6.612;2023-05-19T04:58:25;19.20;56.30
29321;DHT22;16323;51.130;6.612;2023-05-19T05:00:52;19.20;56.50
29321;DHT22;16323;51.130;6.612;2023-05-19T05:03:20;19.20;56.50
29321;DHT22;16323;51.130;6.612;2023-05-19T05:05:47;19.20;55.90
29321;DHT22;16323;51.130;6.612;2023-05-19T05:08:14;19.20;56.10
29321;DHT22;16323;51.130;6.612;2023-05-19T05:10:49;19.20;56.20
29321;DHT22;16323;51.130;6.612;2023-05-19T05:13:17;19.20;56.10
29321;DHT22;16323;51.130;6.612;2023-05-19T05:15:44;19.20;56.20
29321;DHT22;16323;51.130;6.612;2023-05-19T05:18:12;19.20;56.60
29321;DHT22;16323;51.130;6.612;2023-05-19T05:20:40;19.20;56.60
29321;DHT22;16323;51.130;6.612;2023-05-19T05:23:07;19.30;56.90
29321;DHT22;16323;51.130;6.612;2023-05-19T05:25:35;19.30;57.00
29321;DHT22;16323;51.130;6.612;2023-05-19T05:28:04;19.30;57.10
29321;DHT22;16323;51.130;6.612;2023-05-19T05:30:32;19.30;57.10
29321;DHT22;16323;51.130;6.612;2023-05-19T05:32:59;19.30;57.30
29321;DHT22;16323;51.130;6.612;2023-05-19T05:35:26;19.30;57.30
29321;DHT22;16323;51.130;6.612;2023-05-19T05:37:54;19.30;57.00
29321;DHT22;16323;51.130;6.612;2023-05-19T05:40:21;19.30;56.80
29321;DHT22;16323;51.130;6.612;2023-05-19T05:42:48;19.30;56.90
29321;DHT22;16323;51.130;6.612;2023-05-19T05:45:16;19.30;57.00
29321;DHT22;16323;51.130;6.612;2023-05-19T05:47:43;19.30;56.60
29321;DHT22;16323;51.130;6.612;2023-05-19T05:50:12;19.30;55.70
29321;DHT22;16323;51.130;6.612;2023-05-19T05:52:40;19.30;55.30
29321;DHT22;16323;51.130;6.612;2023-05-19T05:55:08;19.30;55.20
29321;DHT22;16323;51.130;6.612;2023-05-19T05:57:35;19.30;55.90
29321;DHT22;16323;51.130;6.612;2023-05-19T06:00:02;19.30;56.20
29321;DHT22;16323;51.130;6.612;2023-05-19T06:02:33;19.20;55.70
29321;DHT22;16323;51.130;6.612;2023-05-19T06:05:01;19.20;55.30
29321;DHT22;16323;51.130;6.612;2023-05-19T06:07:27;19.20;55.10
29321;DHT22;16323;51.130;6.612;2023-05-19T06:09:54;19.20;54.90
29321;DHT22;16323;51.130;6.612;2023-05-19T06:12:21;19.20;54.80
29321;DHT22;16323;51.130;6.612;2023-05-19T06:14:48;19.20;55.00
29321;DHT22;16323;51.130;6.612;2023-05-19T06:17:16;19.20;54.90
29321;DHT22;16323;51.130;6.612;2023-05-19T06:19:44;19.20;55.20
29321;DHT22;16323;51.130;6.612;2023-05-19T06:22:11;19.20;55.40
29321;DHT22;16323;51.130;6.612;2023-05-19T06:24:38;19.20;55.90
29321;DHT22;16323;51.130;6.612;2023-05-19T06:27:04;19.20;56.20
29321;DHT22;16323;51.130;6.612;2023-05-19T06:29:31;19.30;56.60
29321;DHT22;16323;51.130;6.612;2023-05-19T06:31:58;19.30;56.80
29321;DHT22;16323;51.130;6.612;2023-05-19T06:34:25;19.30;57.00
29321;DHT22;16323;51.130;6.612;2023-05-19T06:36:53;19.30;57.20
29321;DHT22;16323;51.130;6.612;2023-05-19T06:39:20;19.30;57.40
29321;DHT22;16323;51.130;6.612;2023-05-19T06:41:47;19.30;57.40
29321;DHT22;16323;51.130;6.612;2023-05-19T06:44:14;19.30;57.60
29321;DHT22;16323;51.130;6.612;2023-05-19T06:46:40;19.30;57.70
29321;DHT22;16323;51.130;6.612;2023-05-19T06:49:09;19.30;57.80
29321;DHT22;16323;51.130;6.612;2023-05-19T06:51:36;19.30;57.80
29321;DHT22;16323;51.130;6.612;2023-05-19T06:54:04;19.30;57.90
29321;DHT22;16323;51.130;6.612;2023-05-19T06:56:30;19.40;58.10
29321;DHT22;16323;51.130;6.612;2023-05-19T06:58:57;19.30;58.10
29321;DHT22;16323;51.130;6.612;2023-05-19T07:01:24;19.40;58.50
29321;DHT22;16323;51.130;6.612;2023-05-19T07:03:52;19.40;58.40
29321;DHT22;16323;51.130;6.612;2023-05-19T07:06:18;19.40;59.10
29321;DHT22;16323;51.130;6.612;2023-05-19T07:08:45;19.40;59.30
29321;DHT22;16323;51.130;6.612;2023-05-19T07:11:13;19.40;59.50
29321;DHT22;16323;51.130;6.612;2023-05-19T07:13:40;19.50;59.60
29321;DHT22;16323;51.130;6.612;2023-05-19T07:16:07;19.50;59.30
29321;DHT22;16323;51.130;6.612;2023-05-19T07:18:34;19.50;59.20
29321;DHT22;16323;51.130;6.612;2023-05-19T07:21:00;19.50;59.20
29321;DHT22;16323;51.130;6.612;2023-05-19T07:23:27;19.50;59.10
29321;DHT22;16323;51.130;6.612;2023-05-19T07:25:54;19.50;59.10
29321;DHT22;16323;51.130;6.612;2023-05-19T07:28:22;19.50;59.00
29321;DHT22;16323;51.130;6.612;2023-05-19T07:30:49;19.50;59.10
29321;DHT22;16323;51.130;6.612;2023-05-19T07:33:16;19.50;59.10
29321;DHT22;16323;51.130;6.612;2023-05-19T07:35:43;19.50;59.00
29321;DHT22;16323;51.130;6.612;2023-05-19T07:38:10;19.50;58.90
29321;DHT22;16323;51.130;6.612;2023-05-19T07:40:37;19.50;58.90
29321;DHT22;16323;51.130;6.612;2023-05-19T07:43:04;19.50;58.90
29321;DHT22;16323;51.130;6.612;2023-05-19T07:45:32;19.50;59.20
29321;DHT22;16323;51.130;6.612;2023-05-19T07:47:59;19.50;59.00
29321;DHT22;16323;51.130;6.612;2023-05-19T07:50:25;19.50;59.00
29321;DHT22;16323;51.130;6.612;2023-05-19T07:52:52;19.50;58.70
29321;DHT22;16323;51.130;6.612;2023-05-19T07:55:19;19.50;58.50
29321;DHT22;16323;51.130;6.612;2023-05-19T07:57:47;19.50;58.50
29321;DHT22;16323;51.130;6.612;2023-05-19T08:00:15;19.50;58.60
29321;DHT22;16323;51.130;6.612;2023-05-19T08:02:43;19.50;58.50
29321;DHT22;16323;51.130;6.612;2023-05-19T08:05:10;19.50;58.50
29321;DHT22;16323;51.130;6.612;2023-05-19T08:07:37;19.50;58.50
29321;DHT22;16323;51.130;6.612;2023-05-19T08:10:04;19.50;58.50
29321;DHT22;16323;51.130;6.612;2023-05-19T08:12:31;19.50;58.50
29321;DHT22;16323;51.130;6.612;2023-05-19T08:14:58;19.50;58.60
29321;DHT22;16323;51.130;6.612;2023-05-19T08:17:25;19.50;58.60
29321;DHT22;16323;51.130;6.612;2023-05-19T08:19:53;19.50;58.80
29321;DHT22;16323;51.130;6.612;2023-05-19T08:22:19;19.50;58.60
29321;DHT22;16323;51.130;6.612;2023-05-19T08:24:46;19.50;58.60
29321;DHT22;16323;51.130;6.612;2023-05-19T08:27:14;19.50;58.60
29321;DHT22;16323;51.130;6.612;2023-05-19T08:29:41;19.50;58.60
29321;DHT22;16323;51.130;6.612;2023-05-19T08:32:07;19.50;58.50
29321;DHT22;16323;51.130;6.612;2023-05-19T08:34:34;19.50;58.50
29321;DHT22;16323;51.130;6.612;2023-05-19T08:37:02;19.50;58.60
29321;DHT22;16323;51.130;6.612;2023-05-19T08:39:29;19.50;58.50
29321;DHT22;16323;51.130;6.612;2023-05-19T08:41:58;19.60;58.50
29321;DHT22;16323;51.130;6.612;2023-05-19T08:44:26;19.60;58.60
29321;DHT22;16323;51.130;6.612;2023-05-19T08:46:54;19.60;58.50
29321;DHT22;16323;51.130;6.612;2023-05-19T08:49:25;19.60;58.50
29321;DHT22;16323;51.130;6.612;2023-05-19T08:51:59;19.60;58.40
29321;DHT22;16323;51.130;6.612;2023-05-19T08:54:35;19.60;58.40
29321;DHT22;16323;51.130;6.612;2023-05-19T08:57:05;19.60;58.30
29321;DHT22;16323;51.130;6.612;2023-05-19T08:59:32;19.60;58.30
29321;DHT22;16323;51.130;6.612;2023-05-19T09:02:00;19.60;58.60
29321;DHT22;16323;51.130;6.612;2023-05-19T09:04:27;19.60;60.20
29321;DHT22;16323;51.130;6.612;2023-05-19T09:06:55;19.60;59.70
29321;DHT22;16323;51.130;6.612;2023-05-19T09:09:23;19.60;59.40
29321;DHT22;16323;51.130;6.612;2023-05-19T09:11:51;19.60;59.20
29321;DHT22;16323;51.130;6.612;2023-05-19T09:14:18;19.60;59.10
29321;DHT22;16323;51.130;6.612;2023-05-19T09:16:45;19.60;58.90
29321;DHT22;16323;51.130;6.612;2023-05-19T09:19:15;19.50;58.80
29321;DHT22;16323;51.130;6.612;2023-05-19T09:21:42;19.60;59.00
29321;DHT22;16323;51.130;6.612;2023-05-19T09:24:10;19.60;59.00
29321;DHT22;16323;51.130;6.612;2023-05-19T09:26:38;19.60;59.00
29321;DHT22;16323;51.130;6.612;2023-05-19T09:29:16;19.60;58.80
29321;DHT22;16323;51.130;6.612;2023-05-19T09:31:47;19.60;58.80
29321;DHT22;16323;51.130;6.612;2023-05-19T09:34:15;19.60;58.80
29321;DHT22;16323;51.130;6.612;2023-05-19T09:36:42;19.60;58.70
29321;DHT22;16323;51.130;6.612;2023-05-19T09:39:12;19.60;58.70
29321;DHT22;16323;51.130;6.612;2023-05-19T09:41:39;19.60;58.70
29321;DHT22;16323;51.130;6.612;2023-05-19T09:44:07;19.60;58.70
29321;DHT22;16323;51.130;6.612;2023-05-19T09:46:46;19.60;58.60
29321;DHT22;16323;51.130;6.612;2023-05-19T09:49:17;19.60;58.50
29321;DHT22;16323;51.130;6.612;2023-05-19T09:51:44;19.60;58.50
29321;DHT22;16323;51.130;6.612;2023-05-19T09:54:13;19.60;58.40
29321;DHT22;16323;51.130;6.612;2023-05-19T09:56:40;19.60;58.30
29321;DHT22;16323;51.130;6.612;2023-05-19T09:59:07;19.60;58.40
29321;DHT22;16323;51.130;6.612;2023-05-19T10:01:34;19.60;58.50
29321;DHT22;16323;51.130;6.612;2023-05-19T10:04:06;19.60;58.60
29321;DHT22;16323;51.130;6.612;2023-05-19T10:06:33;19.60;58.70
29321;DHT22;16323;51.130;6.612;2023-05-19T10:09:01;19.60;58.60
29321;DHT22;16323;51.130;6.612;2023-05-19T10:11:29;19.60;58.60
29321;DHT22;16323;51.130;6.612;2023-05-19T10:13:56;19.60;58.70
29321;DHT22;16323;51.130;6.612;2023-05-19T10:16:25;19.60;58.60
29321;DHT22;16323;51.130;6.612;2023-05-19T10:18:54;19.60;58.60
29321;DHT22;16323;51.130;6.612;2023-05-19T10:21:23;19.60;58.60
29321;DHT22;16323;51.130;6.612;2023-05-19T10:23:50;19.60;58.70
29321;DHT22;16323;51.130;6.612;2023-05-19T10:26:17;19.60;58.80
29321;DHT22;16323;51.130;6.612;2023-05-19T10:28:46;19.60;58.80
29321;DHT22;16323;51.130;6.612;2023-05-19T10:31:17;19.60;58.80
29321;DHT22;16323;51.130;6.612;2023-05-19T10:34:20;19.60;58.80
29321;DHT22;16323;51.130;6.612;2023-05-19T10:36:53;19.60;59.60
29321;DHT22;16323;51.130;6.612;2023-05-19T10:39:24;19.70;59.10
29321;DHT22;16323;51.130;6.612;2023-05-19T10:42:01;19.60;58.60
29321;DHT22;16323;51.130;6.612;2023-05-19T10:44:39;19.60;58.60
29321;DHT22;16323;51.130;6.612;2023-05-19T10:47:06;19.70;58.70
29321;DHT22;16323;51.130;6.612;2023-05-19T10:49:36;19.70;58.80
29321;DHT22;16323;51.130;6.612;2023-05-19T10:52:18;19.70;58.80
29321;DHT22;16323;51.130;6.612;2023-05-19T10:54:46;19.70;58.60
29321;DHT22;16323;51.130;6.612;2023-05-19T10:57:16;19.70;58.60
29321;DHT22;16323;51.130;6.612;2023-05-19T10:59:43;19.70;58.50
29321;DHT22;16323;51.130;6.612;2023-05-19T11:02:10;19.70;58.40
29321;DHT22;16323;51.130;6.612;2023-05-19T11:05:06;19.60;58.50
29321;DHT22;16323;51.130;6.612;2023-05-19T11:07:35;19.70;58.50
29321;DHT22;16323;51.130;6.612;2023-05-19T11:10:05;19.60;58.40
29321;DHT22;16323;51.130;6.612;2023-05-19T11:12:39;19.70;58.50
29321;DHT22;16323;51.130;6.612;2023-05-19T11:15:09;19.70;58.40
29321;DHT22;16323;51.130;6.612;2023-05-19T11:17:38;19.70;58.30
29321;DHT22;16323;51.130;6.612;2023-05-19T11:20:07;19.70;59.40
29321;DHT22;16323;51.130;6.612;2023-05-19T11:22:36;19.70;58.50
29321;DHT22;16323;51.130;6.612;2023-05-19T11:25:03;19.70;58.50
29321;DHT22;16323;51.130;6.612;2023-05-19T11:27:33;19.70;58.60
29321;DHT22;16323;51.130;6.612;2023-05-19T11:30:08;19.70;58.50
29321;DHT22;16323;51.130;6.612;2023-05-19T11:32:39;19.70;58.70
29321;DHT22;16323;51.130;6.612;2023-05-19T11:35:07;19.70;58.80
29321;DHT22;16323;51.130;6.612;2023-05-19T11:37:36;19.70;58.80
29321;DHT22;16323;51.130;6.612;2023-05-19T11:40:06;19.70;58.70
29321;DHT22;16323;51.130;6.612;2023-05-19T11:42:34;19.70;58.90
29321;DHT22;16323;51.130;6.612;2023-05-19T11:45:01;19.70;58.90
29321;DHT22;16323;51.130;6.612;2023-05-19T11:47:30;19.70;58.80
29321;DHT22;16323;51.130;6.612;2023-05-19T11:49:57;19.70;58.70
29321;DHT22;16323;51.130;6.612;2023-05-19T11:52:24;19.70;59.90
29321;DHT22;16323;51.130;6.612;2023-05-19T11:54:53;19.70;58.60
29321;DHT22;16323;51.130;6.612;2023-05-19T11:57:21;19.70;58.60
29321;DHT22;16323;51.130;6.612;2023-05-19T11:59:48;19.70;58.60
29321;DHT22;16323;51.130;6.612;2023-05-19T12:02:17;19.70;58.80
29321;DHT22;16323;51.130;6.612;2023-05-19T12:04:45;19.70;58.70
29321;DHT22;16323;51.130;6.612;2023-05-19T12:07:12;19.70;58.70
29321;DHT22;16323;51.130;6.612;2023-05-19T12:09:42;19.70;58.70
29321;DHT22;16323;51.130;6.612;2023-05-19T12:12:12;19.70;60.50
29321;DHT22;16323;51.130;6.612;2023-05-19T12:14:39;19.70;60.00
29321;DHT22;16323;51.130;6.612;2023-05-19T12:17:10;19.70;59.70
29321;DHT22;16323;51.130;6.612;2023-05-19T12:19:38;19.70;59.80
29321;DHT22;16323;51.130;6.612;2023-05-19T12:22:06;19.70;59.80
29321;DHT22;16323;51.130;6.612;2023-05-19T12:24:33;19.70;59.90
29321;DHT22;16323;51.130;6.612;2023-05-19T12:27:11;19.70;59.70
29321;DHT22;16323;51.130;6.612;2023-05-19T12:29:38;19.70;59.50
29321;DHT22;16323;51.130;6.612;2023-05-19T12:32:07;19.70;59.50
29321;DHT22;16323;51.130;6.612;2023-05-19T12:34:35;19.70;59.50
29321;DHT22;16323;51.130;6.612;2023-05-19T12:37:03;19.70;59.40
29321;DHT22;16323;51.130;6.612;2023-05-19T12:39:30;19.70;59.30
29321;DHT22;16323;51.130;6.612;2023-05-19T12:42:00;19.70;59.10
29321;DHT22;16323;51.130;6.612;2023-05-19T12:44:29;19.70;58.90
29321;DHT22;16323;51.130;6.612;2023-05-19T12:46:56;19.80;58.90
29321;DHT22;16323;51.130;6.612;2023-05-19T12:49:23;19.70;59.10
29321;DHT22;16323;51.130;6.612;2023-05-19T12:51:51;19.70;59.10
29321;DHT22;16323;51.130;6.612;2023-05-19T12:54:18;19.70;58.80
29321;DHT22;16323;51.130;6.612;2023-05-19T12:56:49;19.70;58.60
29321;DHT22;16323;51.130;6.612;2023-05-19T12:59:21;19.70;58.30
29321;DHT22;16323;51.130;6.612;2023-05-19T13:01:55;19.70;58.50
29321;DHT22;16323;51.130;6.612;2023-05-19T13:04:22;19.70;58.90
29321;DHT22;16323;51.130;6.612;2023-05-19T13:06:49;19.70;59.10
29321;DHT22;16323;51.130;6.612;2023-05-19T13:09:16;19.70;59.10
29321;DHT22;16323;51.130;6.612;2023-05-19T13:11:44;19.70;58.90
29321;DHT22;16323;51.130;6.612;2023-05-19T13:14:15;19.70;59.60
29321;DHT22;16323;51.130;6.612;2023-05-19T13:16:43;19.70;59.00
29321;DHT22;16323;51.130;6.612;2023-05-19T13:19:12;19.70;59.10
29321;DHT22;16323;51.130;6.612;2023-05-19T13:21:39;19.60;59.00
29321;DHT22;16323;51.130;6.612;2023-05-19T13:24:06;19.60;59.00
29321;DHT22;16323;51.130;6.612;2023-05-19T13:26:33;19.60;59.10
29321;DHT22;16323;51.130;6.612;2023-05-19T13:29:00;19.60;59.10
29321;DHT22;16323;51.130;6.612;2023-05-19T13:31:26;19.60;59.20
29321;DHT22;16323;51.130;6.612;2023-05-19T13:33:53;19.60;59.40
29321;DHT22;16323;51.130;6.612;2023-05-19T13:36:21;19.60;59.20
29321;DHT22;16323;51.130;6.612;2023-05-19T13:38:48;19.60;59.00
29321;DHT22;16323;51.130;6.612;2023-05-19T13:41:15;19.60;59.00
29321;DHT22;16323;51.130;6.612;2023-05-19T13:43:42;19.70;59.10
29321;DHT22;16323;51.130;6.612;2023-05-19T13:46:09;19.70;58.90
29321;DHT22;16323;51.130;6.612;2023-05-19T13:48:36;19.70;58.80
29321;DHT22;16323;51.130;6.612;2023-05-19T13:51:03;19.70;58.80
29321;DHT22;16323;51.130;6.612;2023-05-19T13:53:31;19.70;58.80
29321;DHT22;16323;51.130;6.612;2023-05-19T13:56:00;19.70;58.70
29321;DHT22;16323;51.130;6.612;2023-05-19T13:58:27;19.70;58.60
29321;DHT22;16323;51.130;6.612;2023-05-19T14:00:54;19.70;58.50
29321;DHT22;16323;51.130;6.612;2023-05-19T14:03:24;19.70;58.50
29321;DHT22;16323;51.130;6.612;2023-05-19T14:05:51;19.70;58.40
29321;DHT22;16323;51.130;6.612;2023-05-19T14:08:18;19.70;58.20
29321;DHT22;16323;51.130;6.612;2023-05-19T14:10:46;19.70;58.10
29321;DHT22;16323;51.130;6.612;2023-05-19T14:13:13;19.70;58.30
29321;DHT22;16323;51.130;6.612;2023-05-19T14:15:40;19.70;58.10
29321;DHT22;16323;51.130;6.612;2023-05-19T14:18:06;19.70;58.30
29321;DHT22;16323;51.130;6.612;2023-05-19T14:20:33;19.70;58.40
29321;DHT22;16323;51.130;6.612;2023-05-19T14:23:00;19.60;58.10
29321;DHT22;16323;51.130;6.612;2023-05-19T14:25:27;19.70;58.30
29321;DHT22;16323;51.130;6.612;2023-05-19T14:27:55;19.70;58.50
29321;DHT22;16323;51.130;6.612;2023-05-19T14:30:22;19.70;58.30
29321;DHT22;16323;51.130;6.612;2023-05-19T14:32:49;19.70;58.20
29321;DHT22;16323;51.130;6.612;2023-05-19T14:35:15;19.70;58.10
29321;DHT22;16323;51.130;6.612;2023-05-19T14:37:42;19.70;58.10
29321;DHT22;16323;51.130;6.612;2023-05-19T14:40:10;19.70;58.10
29321;DHT22;16323;51.130;6.612;2023-05-19T14:42:36;19.70;58.00
29321;DHT22;16323;51.130;6.612;2023-05-19T14:45:05;19.70;58.00
29321;DHT22;16323;51.130;6.612;2023-05-19T14:47:32;19.70;58.10
29321;DHT22;16323;51.130;6.612;2023-05-19T14:49:59;19.70;57.90
29321;DHT22;16323;51.130;6.612;2023-05-19T14:52:26;19.70;57.90
29321;DHT22;16323;51.130;6.612;2023-05-19T14:54:53;19.70;57.90
29321;DHT22;16323;51.130;6.612;2023-05-19T14:57:20;19.70;58.00
29321;DHT22;16323;51.130;6.612;2023-05-19T14:59:47;19.80;57.90
29321;DHT22;16323;51.130;6.612;2023-05-19T15:02:15;19.70;57.80
29321;DHT22;16323;51.130;6.612;2023-05-19T15:04:42;19.70;57.70
29321;DHT22;16323;51.130;6.612;2023-05-19T15:07:09;19.70;57.60
29321;DHT22;16323;51.130;6.612;2023-05-19T15:09:36;19.70;57.60
29321;DHT22;16323;51.130;6.612;2023-05-19T15:12:03;19.70;57.60
29321;DHT22;16323;51.130;6.612;2023-05-19T15:14:29;19.70;57.70
29321;DHT22;16323;51.130;6.612;2023-05-19T15:16:56;19.80;57.70
29321;DHT22;16323;51.130;6.612;2023-05-19T15:19:24;19.70;57.50
29321;DHT22;16323;51.130;6.612;2023-05-19T15:21:51;19.80;57.50
29321;DHT22;16323;51.130;6.612;2023-05-19T15:24:18;19.80;57.50
29321;DHT22;16323;51.130;6.612;2023-05-19T15:26:44;19.80;57.40
29321;DHT22;16323;51.130;6.612;2023-05-19T15:29:11;19.80;57.40
29321;DHT22;16323;51.130;6.612;2023-05-19T15:31:38;19.70;57.20
29321;DHT22;16323;51.130;6.612;2023-05-19T15:34:05;19.70;57.20
29321;DHT22;16323;51.130;6.612;2023-05-19T15:36:33;19.70;57.10